Time;durP1;ratioP1;P1;durP2;ratioP2;P2;SDS_P1;SDS_P2;PMS_P1;PMS_P2;Temp;Humidity;BMP_temperature;BMP_pressure;BME280_temperature;BME280_humidity;BME280_pressure;Samples;Min_cycle;Max_cycle;Signal;HPM_P1;HPM_P2
2023/03/17 00:02:13;;;;;;;5.50;4.90;;;6.60;99.90;;;;;;5005773;28;20254;-69
2023/03/17 00:04:39;;;;;;;5.77;5.07;;;6.60;99.90;;;;;;5005262;28;20343;-70
2023/03/17 00:07:05;;;;;;;9.90;5.30;;;6.60;99.90;;;;;;5005454;28;20193;-73
2023/03/17 00:09:30;;;;;;;6.30;5.00;;;6.60;99.90;;;;;;5004914;28;20533;-73
2023/03/17 00:11:56;;;;;;;5.80;4.63;;;6.60;99.90;;;;;;5004779;28;20534;-74
2023/03/17 00:14:21;;;;;;;6.50;5.00;;;6.70;99.90;;;;;;5003477;28;20229;-70
2023/03/17 00:16:49;;;;;;;7.67;5.27;;;6.60;99.90;;;;;;5005215;28;20187;-70
2023/03/17 00:19:17;;;;;;;5.70;5.20;;;6.70;99.90;;;;;;5005135;28;20202;-69
2023/03/17 00:21:44;;;;;;;6.80;5.73;;;6.70;99.90;;;;;;5004575;28;20465;-70
2023/03/17 00:24:11;;;;;;;6.00;4.80;;;6.70;99.90;;;;;;5003008;28;20419;-75
2023/03/17 00:26:37;;;;;;;5.47;4.73;;;6.70;99.90;;;;;;5004824;28;20542;-73
2023/03/17 00:29:04;;;;;;;5.40;4.90;;;6.70;99.90;;;;;;5004879;28;20501;-69
2023/03/17 00:31:29;;;;;;;6.57;4.47;;;6.70;99.90;;;;;;5005036;28;20733;-71
2023/03/17 00:33:57;;;;;;;8.23;5.17;;;6.80;99.90;;;;;;5005271;28;20535;-71
2023/03/17 00:36:28;;;;;;;5.40;4.90;;;6.80;99.90;;;;;;5004797;28;20184;-69
2023/03/17 00:38:54;;;;;;;8.40;4.40;;;6.90;99.90;;;;;;5004209;28;20421;-70
2023/03/17 00:41:21;;;;;;;5.23;4.47;;;6.90;99.90;;;;;;5004494;28;20538;-76
2023/03/17 00:43:47;;;;;;;8.10;5.07;;;7.00;99.90;;;;;;5004951;28;20418;-70
2023/03/17 00:46:20;;;;;;;5.97;4.87;;;7.00;99.90;;;;;;5005071;28;20471;-70
2023/03/17 00:48:47;;;;;;;4.93;4.43;;;7.20;99.90;;;;;;5005153;28;20435;-72
2023/03/17 00:51:14;;;;;;;5.37;4.83;;;7.20;99.90;;;;;;5004639;28;20731;-70
2023/03/17 00:53:40;;;;;;;4.57;4.00;;;7.10;99.90;;;;;;5004413;28;20436;-71
2023/03/17 00:56:14;;;;;;;7.47;5.47;;;7.20;99.90;;;;;;5004627;28;20816;-73
2023/03/17 00:58:40;;;;;;;5.17;4.67;;;7.20;99.90;;;;;;5004971;28;20436;-74
2023/03/17 01:01:05;;;;;;;6.10;5.30;;;7.30;99.90;;;;;;5004667;28;20457;-75
2023/03/17 01:03:31;;;;;;;4.70;4.27;;;7.30;99.90;;;;;;5004743;28;20242;-71
2023/03/17 01:05:58;;;;;;;5.93;5.37;;;7.40;99.90;;;;;;5004424;28;20698;-70
2023/03/17 01:08:25;;;;;;;4.37;3.63;;;7.40;99.90;;;;;;5004145;28;20172;-70
2023/03/17 01:10:51;;;;;;;4.47;4.07;;;7.30;99.90;;;;;;5004537;28;20470;-73
2023/03/17 01:13:16;;;;;;;6.50;5.47;;;7.30;99.90;;;;;;5004374;28;20447;-71
2023/03/17 01:15:47;;;;;;;5.83;4.90;;;7.20;99.90;;;;;;5004061;28;20457;-70
2023/03/17 01:18:14;;;;;;;6.17;5.57;;;7.20;99.90;;;;;;5004018;28;20188;-70
2023/03/17 01:20:41;;;;;;;6.60;5.17;;;7.30;99.90;;;;;;5004133;28;20466;-71
2023/03/17 01:23:08;;;;;;;6.77;4.87;;;7.40;99.90;;;;;;5001916;28;20469;-70
2023/03/17 01:25:34;;;;;;;4.67;4.20;;;7.40;99.90;;;;;;5004002;28;20823;-71
2023/03/17 01:28:00;;;;;;;5.30;4.80;;;7.50;99.90;;;;;;5004232;28;20417;-72
2023/03/17 01:30:30;;;;;;;6.50;5.27;;;7.60;99.90;;;;;;5003535;28;20911;-69
2023/03/17 01:32:57;;;;;;;5.37;4.60;;;7.40;99.90;;;;;;5002388;28;20205;-72
2023/03/17 01:35:25;;;;;;;6.43;5.70;;;7.30;99.90;;;;;;5003693;28;20466;-71
2023/03/17 01:37:51;;;;;;;5.83;5.10;;;7.30;99.90;;;;;;5003072;28;20431;-74
2023/03/17 01:40:21;;;;;;;7.10;6.17;;;7.30;99.90;;;;;;5003858;28;20416;-69
2023/03/17 01:42:51;;;;;;;6.73;5.33;;;7.30;99.90;;;;;;5003167;28;20545;-69
2023/03/17 01:45:54;;;;;;;5.80;5.30;;;7.40;99.90;;;;;;5003409;28;20405;-73
2023/03/17 01:48:21;;;;;;;7.13;5.17;;;7.50;99.90;;;;;;5003378;28;20729;-70
2023/03/17 01:50:48;;;;;;;5.80;5.20;;;7.50;99.90;;;;;;5003703;28;20638;-70
2023/03/17 01:53:15;;;;;;;5.33;4.83;;;7.50;99.90;;;;;;5028477;22;20735;-69
2023/03/17 01:55:43;;;;;;;6.53;5.40;;;7.40;99.90;;;;;;5010251;28;20504;-72
2023/03/17 01:58:10;;;;;;;7.20;5.30;;;7.40;99.90;;;;;;5019465;28;20404;-70
2023/03/17 02:00:36;;;;;;;5.50;5.00;;;7.30;99.90;;;;;;5023767;28;20400;-72
2023/03/17 02:03:04;;;;;;;7.67;5.20;;;7.30;99.90;;;;;;5008536;28;20464;-74
2023/03/17 02:05:31;;;;;;;4.37;3.97;;;7.30;99.90;;;;;;5003190;28;20430;-71
2023/03/17 02:07:57;;;;;;;5.63;5.13;;;7.20;99.90;;;;;;5003660;28;20413;-70
2023/03/17 02:10:26;;;;;;;6.30;5.30;;;7.40;99.90;;;;;;5001731;28;20407;-76
2023/03/17 02:12:58;;;;;;;5.40;4.90;;;7.40;99.90;;;;;;5003663;28;20431;-70
2023/03/17 02:15:23;;;;;;;5.70;5.20;;;7.40;99.90;;;;;;5003416;28;20419;-71
2023/03/17 02:17:49;;;;;;;7.00;5.67;;;7.30;99.90;;;;;;5003979;28;20419;-69
2023/03/17 02:20:15;;;;;;;6.00;5.10;;;7.20;99.90;;;;;;5003496;28;20654;-74
2023/03/17 02:22:46;;;;;;;6.83;5.23;;;7.30;99.90;;;;;;5003502;28;20565;-70
2023/03/17 02:25:13;;;;;;;8.57;5.50;;;7.30;99.90;;;;;;5003490;28;20162;-69
2023/03/17 02:27:44;;;;;;;5.30;4.67;;;7.20;99.90;;;;;;5004057;28;20425;-71
2023/03/17 02:30:11;;;;;;;8.17;5.90;;;7.10;99.90;;;;;;5003603;28;20402;-71
2023/03/17 02:32:37;;;;;;;6.10;5.50;;;7.00;99.90;;;;;;5003429;28;20605;-70
2023/03/17 02:35:05;;;;;;;6.47;5.73;;;7.10;99.90;;;;;;5003657;28;20469;-70
2023/03/17 02:37:32;;;;;;;6.33;5.27;;;7.10;99.90;;;;;;5003410;28;20480;-69
2023/03/17 02:39:57;;;;;;;7.10;6.40;;;7.00;99.90;;;;;;5003104;28;20434;-69
2023/03/17 02:42:23;;;;;;;6.60;5.20;;;6.80;99.90;;;;;;5003336;28;20459;-70
2023/03/17 02:44:49;;;;;;;8.77;5.80;;;6.80;99.90;;;;;;5003263;28;20262;-74
2023/03/17 02:47:15;;;;;;;6.47;5.57;;;6.70;99.90;;;;;;5003658;28;20180;-69
2023/03/17 02:49:41;;;;;;;9.73;5.73;;;6.80;99.90;;;;;;5003970;28;20920;-73
2023/03/17 02:52:07;;;;;;;6.30;5.70;;;6.80;99.90;;;;;;5003402;28;20216;-71
2023/03/17 02:54:33;;;;;;;7.43;5.57;;;6.80;99.90;;;;;;5003175;28;20500;-68
2023/03/17 02:56:59;;;;;;;8.87;6.07;;;6.80;99.90;;;;;;5003092;28;20274;-71
2023/03/17 02:59:25;;;;;;;6.30;5.70;;;6.70;99.90;;;;;;5003643;28;20808;-70
2023/03/17 03:01:51;;;;;;;7.43;6.23;;;6.70;99.90;;;;;;5002953;28;20490;-73
2023/03/17 03:04:17;;;;;;;6.40;5.80;;;6.80;99.90;;;;;;5003343;28;20642;-73
2023/03/17 03:06:43;;;;;;;6.83;6.13;;;6.70;99.90;;;;;;5003251;28;20177;-70
2023/03/17 03:09:10;;;;;;;6.50;5.73;;;6.80;99.90;;;;;;5001530;28;20863;-72
2023/03/17 03:11:37;;;;;;;7.27;6.33;;;6.90;99.90;;;;;;5003260;28;20415;-73
2023/03/17 03:14:03;;;;;;;7.07;6.27;;;6.90;99.90;;;;;;5003387;28;20415;-70
2023/03/17 03:16:28;;;;;;;7.30;6.30;;;6.70;99.90;;;;;;5003344;28;20639;-70
2023/03/17 03:18:54;;;;;;;6.23;5.70;;;6.50;99.90;;;;;;5006744;28;20192;-71
2023/03/17 03:21:20;;;;;;;7.80;6.10;;;6.50;99.90;;;;;;5006460;28;20212;-73
2023/03/17 03:23:46;;;;;;;9.23;6.93;;;6.60;99.90;;;;;;5004956;28;20177;-69
2023/03/17 03:26:12;;;;;;;5.67;5.10;;;6.70;99.90;;;;;;5006570;28;20825;-71
2023/03/17 03:28:37;;;;;;;7.80;5.73;;;6.70;99.90;;;;;;5006831;28;20203;-68
2023/03/17 03:31:03;;;;;;;6.97;5.90;;;6.70;99.90;;;;;;5006623;28;20177;-69
2023/03/17 03:33:29;;;;;;;6.33;5.57;;;6.70;99.90;;;;;;5007073;28;20255;-71
2023/03/17 03:35:54;;;;;;;6.23;5.63;;;6.70;99.90;;;;;;5006563;28;20530;-71
2023/03/17 03:38:20;;;;;;;6.50;5.83;;;6.60;99.90;;;;;;5005997;28;20292;-70
2023/03/17 03:40:45;;;;;;;5.80;5.27;;;6.60;99.90;;;;;;5006469;28;20178;-71
2023/03/17 03:43:12;;;;;;;5.83;5.30;;;6.60;99.90;;;;;;5006479;28;20327;-73
2023/03/17 03:45:37;;;;;;;9.77;6.10;;;6.30;99.90;;;;;;5006556;28;20721;-71
2023/03/17 03:48:03;;;;;;;6.50;5.57;;;6.20;99.90;;;;;;5006309;28;20492;-71
2023/03/17 03:50:30;;;;;;;7.70;7.00;;;6.20;99.90;;;;;;5006540;28;20172;-71
2023/03/17 03:52:56;;;;;;;7.40;6.07;;;6.10;99.90;;;;;;5005737;28;20530;-71
2023/03/17 03:55:22;;;;;;;6.90;6.20;;;6.10;99.90;;;;;;5005982;28;20419;-69
2023/03/17 03:57:47;;;;;;;8.20;5.50;;;6.10;99.90;;;;;;5005733;28;20705;-72
2023/03/17 04:00:14;;;;;;;7.07;6.37;;;6.10;99.90;;;;;;5004885;28;20435;-71
2023/03/17 04:02:40;;;;;;;6.30;5.70;;;6.10;99.90;;;;;;5005973;28;20230;-72
2023/03/17 04:05:08;;;;;;;6.80;5.57;;;6.20;99.90;;;;;;5005855;28;20507;-74
2023/03/17 04:07:34;;;;;;;7.33;5.93;;;6.10;99.90;;;;;;5005686;28;20411;-70
2023/03/17 04:09:59;;;;;;;7.17;6.13;;;6.10;99.90;;;;;;5005537;28;20922;-74
2023/03/17 04:12:25;;;;;;;6.03;5.43;;;6.00;99.90;;;;;;5005792;28;20487;-73
2023/03/17 04:14:51;;;;;;;7.27;6.53;;;5.90;99.90;;;;;;5005928;28;20186;-70
2023/03/17 04:17:16;;;;;;;7.57;6.10;;;5.70;99.90;;;;;;5006113;28;20184;-73
2023/03/17 04:19:42;;;;;;;6.07;5.17;;;5.70;99.90;;;;;;5005491;28;20210;-70
2023/03/17 04:22:10;;;;;;;5.77;5.23;;;5.70;99.90;;;;;;5005550;28;20211;-71
2023/03/17 04:24:36;;;;;;;6.63;5.63;;;5.50;99.90;;;;;;5005300;28;20245;-72
2023/03/17 04:27:03;;;;;;;8.63;6.87;;;5.60;99.90;;;;;;5004660;28;20434;-71
2023/03/17 04:29:28;;;;;;;7.77;6.43;;;5.60;99.90;;;;;;5005086;28;20176;-70
2023/03/17 04:31:54;;;;;;;7.70;6.67;;;5.60;99.90;;;;;;5005588;28;20446;-71
2023/03/17 04:34:20;;;;;;;7.20;6.50;;;5.70;99.90;;;;;;5005239;28;20207;-69
2023/03/17 04:36:46;;;;;;;7.00;6.30;;;5.70;99.90;;;;;;5005249;28;20447;-69
2023/03/17 04:39:13;;;;;;;6.67;6.07;;;5.70;99.90;;;;;;5004755;28;20183;-71
2023/03/17 04:41:39;;;;;;;6.20;5.60;;;5.70;99.90;;;;;;5005255;28;20454;-70
2023/03/17 04:44:05;;;;;;;6.70;5.77;;;5.70;99.90;;;;;;5005337;28;20421;-70
2023/03/17 04:46:32;;;;;;;6.63;5.93;;;5.70;99.90;;;;;;5005003;28;20182;-71
2023/03/17 04:48:57;;;;;;;6.97;6.07;;;5.70;99.90;;;;;;5003799;28;20436;-71
2023/03/17 04:51:23;;;;;;;7.47;6.40;;;5.70;99.90;;;;;;5004825;28;20925;-68
2023/03/17 04:53:48;;;;;;;7.13;6.30;;;5.70;99.90;;;;;;5004682;28;20191;-68
2023/03/17 04:56:15;;;;;;;8.10;6.40;;;5.80;99.90;;;;;;5005024;28;20658;-68
2023/03/17 04:58:40;;;;;;;6.90;6.20;;;5.70;99.90;;;;;;5003713;28;20666;-70
2023/03/17 05:01:07;;;;;;;7.93;6.77;;;5.70;99.90;;;;;;5004942;28;20474;-70
2023/03/17 05:03:33;;;;;;;6.77;6.07;;;5.80;99.90;;;;;;5005107;28;20526;-68
2023/03/17 05:06:00;;;;;;;8.20;6.37;;;5.70;99.90;;;;;;5004691;28;20989;-70
2023/03/17 05:08:27;;;;;;;8.17;6.03;;;5.60;99.90;;;;;;5004163;28;20465;-72
2023/03/17 05:10:53;;;;;;;7.70;5.90;;;5.50;99.90;;;;;;5004928;28;20411;-72
2023/03/17 05:13:19;;;;;;;6.27;5.67;;;5.50;99.90;;;;;;5004786;28;20449;-73
2023/03/17 05:15:50;;;;;;;9.43;6.73;;;5.50;99.90;;;;;;5004787;28;20415;-71
2023/03/17 05:18:16;;;;;;;8.03;7.23;;;5.50;99.90;;;;;;5004713;28;20410;-69
2023/03/17 05:20:42;;;;;;;7.43;6.30;;;5.50;99.90;;;;;;5003395;28;20822;-69
2023/03/17 05:23:07;;;;;;;7.30;6.60;;;5.50;99.90;;;;;;5004258;28;20470;-69
2023/03/17 05:25:33;;;;;;;7.17;6.47;;;5.40;99.90;;;;;;5004339;28;20714;-72
2023/03/17 05:27:59;;;;;;;6.60;5.57;;;5.30;99.90;;;;;;5004322;28;20619;-70
2023/03/17 05:30:25;;;;;;;7.07;6.00;;;5.40;99.90;;;;;;5003035;28;20473;-72
2023/03/17 05:32:51;;;;;;;7.33;6.63;;;5.40;99.90;;;;;;5004081;28;20443;-68
2023/03/17 05:35:17;;;;;;;10.10;6.87;;;5.40;99.90;;;;;;5004484;28;20250;-72
2023/03/17 05:37:43;;;;;;;6.90;6.30;;;5.40;99.90;;;;;;5001853;28;20262;-69
2023/03/17 05:40:11;;;;;;;8.40;7.07;;;5.40;99.90;;;;;;5004068;28;20509;-70
2023/03/17 05:42:37;;;;;;;7.73;5.83;;;5.40;99.90;;;;;;5004114;28;20467;-68
2023/03/17 05:45:04;;;;;;;7.77;6.97;;;5.40;99.90;;;;;;5014550;28;20427;-70
2023/03/17 05:47:31;;;;;;;7.83;6.90;;;5.30;99.90;;;;;;5004294;28;20438;-71
2023/03/17 05:49:57;;;;;;;7.87;6.83;;;5.30;99.90;;;;;;5004076;28;20415;-72
2023/03/17 05:52:23;;;;;;;9.03;7.63;;;5.30;99.90;;;;;;5003790;28;20446;-69
2023/03/17 05:54:50;;;;;;;7.47;6.47;;;5.40;99.90;;;;;;5003829;28;20474;-68
2023/03/17 05:57:16;;;;;;;6.60;5.57;;;5.40;99.90;;;;;;5004326;28;20187;-70
2023/03/17 05:59:42;;;;;;;8.60;7.20;;;5.40;99.90;;;;;;5003877;28;20743;-70
2023/03/17 06:02:10;;;;;;;6.07;5.47;;;5.40;99.90;;;;;;5002217;28;21032;-70
2023/03/17 06:04:35;;;;;;;6.77;5.73;;;5.40;99.90;;;;;;5003781;28;20403;-69
2023/03/17 06:07:01;;;;;;;6.27;5.50;;;5.40;99.90;;;;;;5004094;28;20430;-70
2023/03/17 06:09:27;;;;;;;6.77;5.67;;;5.40;99.90;;;;;;5003347;28;20177;-70
2023/03/17 06:11:52;;;;;;;5.40;4.90;;;5.50;99.90;;;;;;5003826;28;20200;-69
2023/03/17 06:14:18;;;;;;;6.43;5.27;;;5.50;99.90;;;;;;5003610;28;20262;-70
2023/03/17 06:16:44;;;;;;;5.50;5.00;;;5.60;99.90;;;;;;5003146;28;20188;-69
2023/03/17 06:19:09;;;;;;;7.97;5.07;;;5.60;99.90;;;;;;5003696;28;20326;-69
2023/03/17 06:21:35;;;;;;;6.90;4.80;;;5.70;99.90;;;;;;5003865;28;20281;-70
2023/03/17 06:24:01;;;;;;;7.63;4.70;;;5.80;99.90;;;;;;5001879;28;20188;-72
2023/03/17 06:26:27;;;;;;;6.80;5.53;;;5.90;99.90;;;;;;5002474;28;20427;-71
2023/03/17 06:28:52;;;;;;;6.50;4.80;;;6.00;99.90;;;;;;5003299;28;20231;-69
2023/03/17 06:31:18;;;;;;;5.90;5.10;;;6.10;99.90;;;;;;4986305;28;20306;-69
2023/03/17 06:33:43;;;;;;;8.20;5.13;;;6.20;99.90;;;;;;5003470;28;20672;-70
2023/03/17 06:36:09;;;;;;;5.47;4.70;;;6.30;99.90;;;;;;5003620;28;20296;-73
2023/03/17 06:38:35;;;;;;;6.00;4.83;;;6.30;99.90;;;;;;5003153;28;20176;-70
2023/03/17 06:41:00;;;;;;;6.07;5.47;;;6.40;99.90;;;;;;5003778;28;20176;-72
2023/03/17 06:43:26;;;;;;;6.67;5.50;;;6.50;99.90;;;;;;5003784;28;20207;-70
2023/03/17 06:45:51;;;;;;;9.80;6.30;;;6.50;99.90;;;;;;5003066;28;20184;-71
2023/03/17 06:48:17;;;;;;;7.70;6.03;;;6.50;99.90;;;;;;5003474;28;20192;-69
2023/03/17 06:50:46;;;;;;;8.47;5.53;;;6.50;99.90;;;;;;5003429;28;20366;-70
2023/03/17 06:53:11;;;;;;;6.60;5.50;;;6.70;99.90;;;;;;5004038;28;20765;-68
2023/03/17 06:55:37;;;;;;;7.90;5.40;;;6.70;99.90;;;;;;5006574;28;20525;-71
2023/03/17 06:58:03;;;;;;;8.20;6.00;;;6.80;99.90;;;;;;5007831;28;20419;-75
2023/03/17 07:00:29;;;;;;;7.20;5.87;;;6.90;99.90;;;;;;5008233;28;20180;-71
2023/03/17 07:02:55;;;;;;;11.03;5.70;;;7.10;99.90;;;;;;5007436;28;20845;-71
2023/03/17 07:05:21;;;;;;;6.10;5.50;;;7.40;99.90;;;;;;5007854;28;20449;-71
2023/03/17 07:07:48;;;;;;;9.37;5.17;;;7.60;99.90;;;;;;5008171;28;20216;-70
2023/03/17 07:10:14;;;;;;;5.20;4.70;;;7.80;99.90;;;;;;5007913;28;20532;-71
2023/03/17 07:12:40;;;;;;;6.57;4.80;;;8.00;99.90;;;;;;5007335;28;20478;-69
2023/03/17 07:15:08;;;;;;;6.30;4.70;;;8.10;99.90;;;;;;5006726;28;20942;-69
2023/03/17 07:17:34;;;;;;;7.13;5.10;;;8.30;99.90;;;;;;5007517;28;20648;-72
2023/03/17 07:19:59;;;;;;;5.53;4.33;;;8.70;99.90;;;;;;5005601;28;20434;-70
2023/03/17 07:22:25;;;;;;;5.97;4.30;;;9.10;99.90;;;;;;5005327;28;20467;-69
2023/03/17 07:24:52;;;;;;;7.00;4.30;;;9.30;99.90;;;;;;5006052;28;20290;-69
2023/03/17 07:27:18;;;;;;;5.80;4.80;;;9.50;99.90;;;;;;5006777;28;20413;-70
2023/03/17 07:29:43;;;;;;;6.60;4.57;;;9.60;99.90;;;;;;5007242;28;20403;-70
2023/03/17 07:32:10;;;;;;;6.63;5.00;;;9.80;99.90;;;;;;5007281;28;20430;-70
2023/03/17 07:34:36;;;;;;;8.13;5.97;;;9.80;99.90;;;;;;5007379;28;20572;-72
2023/03/17 07:37:02;;;;;;;5.70;4.63;;;9.90;99.90;;;;;;5006967;28;20419;-70
2023/03/17 07:39:28;;;;;;;5.67;4.20;;;9.90;99.90;;;;;;5004768;28;20427;-69
2023/03/17 07:41:54;;;;;;;9.23;7.20;;;10.00;99.90;;;;;;5007167;28;20539;-69
2023/03/17 07:44:21;;;;;;;7.70;6.27;;;10.10;99.90;;;;;;5007056;28;20673;-70
2023/03/17 07:46:48;;;;;;;7.33;5.27;;;10.10;99.90;;;;;;5006445;28;20414;-73
2023/03/17 07:49:14;;;;;;;9.40;5.50;;;10.10;99.90;;;;;;5007077;28;20436;-71
2023/03/17 07:51:42;;;;;;;9.53;6.30;;;10.10;99.90;;;;;;5007260;28;21926;-70
2023/03/17 07:54:11;;;;;;;10.00;6.20;;;10.20;99.90;;;;;;5022458;22;20499;-73
2023/03/17 07:56:38;;;;;;;9.57;6.70;;;10.20;99.90;;;;;;5004597;28;20419;-72
2023/03/17 07:59:05;;;;;;;8.70;6.67;;;10.30;99.90;;;;;;5006249;28;20720;-70
2023/03/17 08:01:31;;;;;;;12.77;7.20;;;10.20;99.90;;;;;;5005353;28;20418;-71
2023/03/17 08:03:57;;;;;;;10.93;7.67;;;10.30;99.90;;;;;;5004707;28;20450;-72
2023/03/17 08:06:25;;;;;;;12.97;8.63;;;10.30;99.90;;;;;;5005233;28;20877;-70
2023/03/17 08:08:52;;;;;;;13.33;8.23;;;10.30;99.90;;;;;;5004715;28;20669;-69
2023/03/17 08:11:19;;;;;;;10.53;9.20;;;10.50;99.90;;;;;;5005598;28;20432;-70
2023/03/17 08:13:44;;;;;;;22.70;13.50;;;10.60;99.90;;;;;;5005405;28;20760;-70
2023/03/17 08:16:10;;;;;;;19.83;12.37;;;10.40;99.90;;;;;;5005192;28;20415;-70
2023/03/17 08:18:36;;;;;;;10.73;7.53;;;10.30;99.90;;;;;;5005475;28;20511;-70
2023/03/17 08:21:03;;;;;;;10.50;7.90;;;10.10;99.90;;;;;;5004004;28;20522;-70
2023/03/17 08:23:28;;;;;;;13.57;8.30;;;10.10;99.90;;;;;;5004718;28;20926;-70
2023/03/17 08:25:59;;;;;;;8.80;6.57;;;10.20;99.90;;;;;;5005113;28;20417;-73
2023/03/17 08:28:24;;;;;;;7.60;6.80;;;10.20;99.90;;;;;;5005030;28;20207;-70
2023/03/17 08:30:50;;;;;;;8.23;7.27;;;10.30;99.90;;;;;;5005141;28;20406;-71
2023/03/17 08:33:16;;;;;;;10.17;7.03;;;10.50;99.90;;;;;;5005994;28;20208;-73
2023/03/17 08:35:41;;;;;;;8.03;6.20;;;10.60;99.90;;;;;;5005326;28;20190;-70
2023/03/17 08:38:07;;;;;;;9.40;6.90;;;11.00;99.90;;;;;;5006145;28;20179;-70
2023/03/17 08:40:33;;;;;;;9.63;6.97;;;11.30;99.90;;;;;;5005112;28;20185;-70
2023/03/17 08:42:59;;;;;;;9.70;8.20;;;11.60;99.90;;;;;;5004988;28;20461;-70
2023/03/17 08:45:24;;;;;;;7.77;6.23;;;11.70;99.90;;;;;;5005073;28;20436;-72
2023/03/17 08:47:51;;;;;;;6.83;6.13;;;11.90;99.90;;;;;;5004728;28;20599;-70
2023/03/17 08:50:20;;;;;;;6.50;5.57;;;12.00;99.90;;;;;;5005188;28;20354;-69
2023/03/17 08:52:47;;;;;;;6.70;5.27;;;11.80;99.90;;;;;;5004125;28;20664;-69
2023/03/17 08:55:14;;;;;;;6.87;5.57;;;11.60;99.90;;;;;;5004906;28;20418;-69
2023/03/17 08:57:40;;;;;;;7.33;5.80;;;11.50;99.90;;;;;;5004729;28;20908;-70
2023/03/17 09:00:10;;;;;;;7.87;5.73;;;11.60;99.90;;;;;;5004259;28;20424;-73
2023/03/17 09:02:41;;;;;;;8.97;6.43;;;11.70;99.90;;;;;;5004195;28;21119;-71
2023/03/17 09:05:09;;;;;;;10.23;6.27;;;11.80;99.90;;;;;;5004094;28;20749;-69
2023/03/17 09:07:35;;;;;;;6.47;5.23;;;11.90;99.90;;;;;;5003720;28;20469;-69
2023/03/17 09:10:03;;;;;;;9.53;5.60;;;12.20;99.20;;;;;;5004010;28;20754;-70
2023/03/17 09:12:29;;;;;;;6.97;5.60;;;12.40;98.40;;;;;;5002653;28;20735;-70
2023/03/17 09:14:56;;;;;;;7.67;5.30;;;12.70;98.20;;;;;;5003426;28;20422;-72
2023/03/17 09:17:22;;;;;;;8.07;5.57;;;12.80;97.40;;;;;;5003512;28;20979;-70
2023/03/17 09:19:48;;;;;;;7.30;5.33;;;13.00;96.70;;;;;;5004217;28;20846;-69
2023/03/17 09:22:16;;;;;;;11.13;6.00;;;13.20;96.40;;;;;;5003875;28;20200;-69
2023/03/17 09:24:42;;;;;;;6.80;4.03;;;13.30;96.20;;;;;;5003736;28;20412;-70
2023/03/17 09:27:07;;;;;;;7.03;4.17;;;13.30;94.30;;;;;;5003805;28;20413;-72
2023/03/17 09:29:33;;;;;;;5.40;3.83;;;13.70;94.40;;;;;;5003880;28;20661;-70
2023/03/17 09:31:59;;;;;;;5.17;3.60;;;13.80;93.20;;;;;;5003746;28;20186;-69
2023/03/17 09:34:25;;;;;;;9.33;3.50;;;14.20;92.70;;;;;;5003923;28;20379;-73
2023/03/17 09:36:53;;;;;;;2.73;2.03;;;14.40;91.90;;;;;;5002466;28;20523;-69
2023/03/17 09:39:21;;;;;;;3.30;2.20;;;14.70;89.70;;;;;;5003062;28;20240;-71
2023/03/17 09:42:11;;;;;;;4.10;2.10;;;15.00;85.30;;;;;;5002448;28;20446;-71
2023/03/17 09:45:15;;;;;;;5.53;4.80;;;15.20;84.80;;;;;;5003888;28;20425;-74
2023/03/17 09:48:10;;;;;;;3.83;3.40;;;14.90;91.20;;;;;;5001571;28;20485;-71
2023/03/17 09:50:45;;;;;;;9.00;5.10;;;14.80;89.00;;;;;;4997810;28;20430;-70
2023/03/17 09:53:26;;;;;;;4.23;3.43;;;14.90;90.50;;;;;;5003383;28;20935;-71
2023/03/17 09:55:56;;;;;;;3.63;2.90;;;15.00;88.60;;;;;;5004064;28;20561;-72
2023/03/17 09:58:30;;;;;;;4.67;2.80;;;15.50;85.30;;;;;;5003711;28;20411;-71
2023/03/17 10:00:56;;;;;;;6.30;2.87;;;15.60;86.40;;;;;;5002302;28;20407;-71
2023/03/17 10:03:23;;;;;;;4.80;3.73;;;15.70;86.20;;;;;;5000426;28;20471;-74
2023/03/17 10:05:48;;;;;;;5.07;3.77;;;15.60;87.90;;;;;;5002285;28;20473;-71
2023/03/17 10:08:56;;;;;;;3.67;3.10;;;15.80;86.50;;;;;;5002824;28;21354;-71
2023/03/17 10:11:46;;;;;;;6.77;3.03;;;16.00;86.20;;;;;;4970114;28;20254;-70
2023/03/17 10:14:28;;;;;;;7.60;3.90;;;16.40;82.40;;;;;;5002930;28;20431;-73
2023/03/17 10:17:00;;;;;;;8.20;6.20;;;16.50;83.40;;;;;;5003367;28;20410;-70
2023/03/17 10:19:37;;;;;;;4.17;3.70;;;16.60;86.00;;;;;;5002953;28;20399;-71
2023/03/17 10:22:12;;;;;;;8.10;5.90;;;16.30;84.90;;;;;;5003138;28;20788;-71
2023/03/17 10:24:45;;;;;;;7.63;5.53;;;16.60;85.50;;;;;;5002901;28;20426;-70
2023/03/17 10:27:14;;;;;;;5.20;3.13;;;16.90;82.10;;;;;;5002195;28;21080;-70
2023/03/17 10:29:40;;;;;;;2.30;1.80;;;16.90;82.30;;;;;;5002868;28;20417;-71
2023/03/17 10:32:10;;;;;;;4.40;2.70;;;17.10;78.20;;;;;;5003010;28;20925;-73
2023/03/17 10:34:36;;;;;;;4.37;3.17;;;17.50;79.20;;;;;;5003416;28;20414;-73
2023/03/17 10:37:11;;;;;;;11.03;5.97;;;17.50;77.70;;;;;;5003048;28;20888;-71
2023/03/17 10:39:48;;;;;;;5.67;2.83;;;17.20;82.00;;;;;;5002438;28;20413;-70
2023/03/17 10:42:34;;;;;;;3.37;2.90;;;17.30;79.60;;;;;;5002947;28;20442;-70
2023/03/17 10:45:23;;;;;;;6.20;4.30;;;17.90;79.10;;;;;;5003117;28;20863;-70
2023/03/17 10:47:49;;;;;;;7.53;4.53;;;18.60;79.00;;;;;;5002976;28;20417;-72
2023/03/17 10:50:24;;;;;;;5.90;4.40;;;18.60;80.40;;;;;;5002386;28;20419;-70
2023/03/17 10:52:59;;;;;;;4.97;3.73;;;18.40;79.80;;;;;;5002238;28;20469;-70
2023/03/17 10:55:30;;;;;;;8.73;5.43;;;18.40;78.40;;;;;;5001388;28;20434;-70
2023/03/17 10:58:37;;;;;;;5.83;3.87;;;18.70;77.90;;;;;;5002164;28;20677;-70
2023/03/17 11:01:40;;;;;;;4.60;3.30;;;18.90;78.00;;;;;;5002426;28;20909;-70
2023/03/17 11:04:25;;;;;;;5.43;3.90;;;18.70;75.70;;;;;;5002722;28;21061;-70
2023/03/17 11:06:51;;;;;;;5.60;4.37;;;18.70;77.10;;;;;;5002658;28;21178;-71
2023/03/17 11:09:20;;;;;;;5.83;3.27;;;18.80;76.80;;;;;;5001561;28;20407;-71
2023/03/17 11:11:48;;;;;;;6.87;3.23;;;18.90;75.40;;;;;;5002747;28;20756;-71
2023/03/17 11:14:17;;;;;;;8.70;4.87;;;19.00;75.00;;;;;;5002800;28;20441;-71
2023/03/17 11:17:12;;;;;;;7.23;4.20;;;19.30;75.40;;;;;;5002414;28;20410;-71
2023/03/17 11:20:03;;;;;;;10.70;4.60;;;19.10;75.10;;;;;;5002347;28;20406;-71
2023/03/17 11:22:39;;;;;;;7.03;4.73;;;19.10;74.30;;;;;;5002386;28;20493;-70
2023/03/17 11:25:10;;;;;;;5.07;3.67;;;19.80;73.50;;;;;;5002504;28;20421;-71
2023/03/17 11:28:05;;;;;;;4.10;3.50;;;20.90;72.20;;;;;;5002528;28;20744;-74
2023/03/17 11:30:46;;;;;;;5.23;3.63;;;22.20;69.00;;;;;;5002322;28;20422;-71
2023/03/17 11:33:24;;;;;;;4.07;2.83;;;23.00;66.70;;;;;;5002282;28;20469;-74
2023/03/17 11:35:57;;;;;;;4.30;3.10;;;23.20;64.00;;;;;;5002384;28;20521;-71
2023/03/17 11:38:23;;;;;;;4.90;2.30;;;22.50;63.50;;;;;;5002660;28;20461;-71
2023/03/17 11:41:19;;;;;;;2.77;2.27;;;22.70;62.40;;;;;;5006386;28;20450;-71
2023/03/17 11:44:10;;;;;;;2.90;1.77;;;23.00;60.70;;;;;;5005405;28;20231;-72
2023/03/17 11:46:42;;;;;;;3.10;1.70;;;23.30;60.00;;;;;;5006349;28;20415;-71
2023/03/17 11:49:27;;;;;;;2.13;1.47;;;23.60;59.20;;;;;;5005602;28;20403;-73
2023/03/17 11:52:11;;;;;;;2.60;1.70;;;24.00;59.30;;;;;;5004775;28;20454;-70
2023/03/17 11:54:51;;;;;;;1.97;1.77;;;24.80;58.10;;;;;;5005636;28;20448;-71
2023/03/17 11:57:26;;;;;;;2.73;2.20;;;24.80;56.50;;;;;;5005529;28;20464;-73
2023/03/17 11:59:57;;;;;;;3.23;2.03;;;25.20;57.10;;;;;;5004669;28;20952;-69
2023/03/17 12:02:41;;;;;;;3.13;1.97;;;26.20;54.00;;;;;;5005438;28;20886;-70
2023/03/17 12:05:08;;;;;;;2.73;1.47;;;26.10;53.20;;;;;;5006055;28;20422;-73
2023/03/17 12:08:06;;;;;;;3.40;1.57;;;26.10;49.90;;;;;;5005014;28;20410;-70
2023/03/17 12:10:40;;;;;;;2.03;1.53;;;26.00;49.60;;;;;;4997036;28;20905;-71
2023/03/17 12:13:17;;;;;;;4.07;2.70;;;26.20;49.30;;;;;;5004822;28;20507;-70
2023/03/17 12:15:49;;;;;;;3.70;2.40;;;26.10;49.50;;;;;;5004860;28;20422;-73
2023/03/17 12:18:24;;;;;;;2.90;2.10;;;26.00;50.20;;;;;;5005167;28;20427;-70
2023/03/17 12:20:58;;;;;;;3.93;2.53;;;25.90;50.60;;;;;;5005370;28;20414;-70
2023/03/17 12:23:35;;;;;;;2.60;1.83;;;25.20;50.70;;;;;;5005058;28;20536;-73
2023/03/17 12:26:04;;;;;;;3.07;1.80;;;23.70;51.60;;;;;;5005012;28;21194;-73
2023/03/17 12:28:47;;;;;;;2.47;2.00;;;22.80;52.70;;;;;;5005323;28;20759;-70
2023/03/17 12:31:24;;;;;;;3.87;2.50;;;23.60;52.50;;;;;;5004861;28;20433;-73
2023/03/17 12:34:08;;;;;;;5.50;2.63;;;24.40;52.30;;;;;;5004880;28;20476;-71
2023/03/17 12:36:36;;;;;;;5.03;2.60;;;25.30;50.10;;;;;;5004550;28;20438;-72
2023/03/17 12:39:15;;;;;;;2.90;1.70;;;24.60;51.20;;;;;;5003981;28;20706;-70
2023/03/17 12:41:43;;;;;;;2.77;1.50;;;23.40;50.90;;;;;;5004756;28;21254;-70
2023/03/17 12:44:38;;;;;;;3.73;2.13;;;22.60;53.00;;;;;;5004673;28;20753;-70
2023/03/17 12:47:22;;;;;;;4.23;2.37;;;22.80;53.10;;;;;;5004486;28;20406;-70
2023/03/17 12:50:16;;;;;;;2.90;2.00;;;23.20;54.20;;;;;;5003786;28;20502;-71
2023/03/17 12:52:42;;;;;;;4.50;2.33;;;23.90;53.70;;;;;;5004444;28;20446;-70
2023/03/17 12:55:14;;;;;;;3.33;2.33;;;24.50;53.00;;;;;;5004066;28;20841;-72
2023/03/17 12:57:59;;;;;;;6.60;2.53;;;24.90;51.80;;;;;;5004484;28;20183;-73
2023/03/17 13:00:30;;;;;;;2.17;1.43;;;25.10;49.70;;;;;;5004349;28;20415;-70
2023/03/17 13:03:25;;;;;;;2.33;2.13;;;25.20;48.50;;;;;;5003941;28;20894;-74
2023/03/17 13:05:58;;;;;;;2.00;1.60;;;25.30;49.70;;;;;;5004521;28;20434;-71